createdAt,value
2023-03-10T00:00:21.418Z,66.05
2023-03-10T00:02:49.525Z,66.26
2023-03-10T00:04:53.686Z,66.12
2023-03-10T00:06:56.660Z,66.29
2023-03-10T00:09:00.050Z,66.23
2023-03-10T00:11:02.951Z,66.19
2023-03-10T00:13:05.526Z,66.32
2023-03-10T00:15:09.429Z,66.36
2023-03-10T00:17:12.003Z,66.32
2023-03-10T00:19:14.634Z,66.40
2023-03-10T00:21:20.163Z,66.44
2023-03-10T00:23:23.445Z,66.49
2023-03-10T00:25:26.382Z,66.47
2023-03-10T00:27:30.137Z,66.55
2023-03-10T00:29:32.965Z,66.52
2023-03-10T00:31:38.336Z,66.41
2023-03-10T00:33:46.703Z,66.47
2023-03-10T00:35:50.002Z,66.38
2023-03-10T00:37:53.296Z,66.16
2023-03-10T00:39:56.052Z,66.00
2023-03-10T00:41:59.740Z,65.87
2023-03-10T00:44:03.940Z,65.88
2023-03-10T00:46:08.781Z,65.87
2023-03-10T00:48:11.982Z,65.87
2023-03-10T00:50:14.873Z,65.87
2023-03-10T00:52:18.016Z,66.00
2023-03-10T00:54:22.683Z,65.81
2023-03-10T00:56:26.154Z,65.54
2023-03-10T00:58:30.000Z,65.69
2023-03-10T01:00:32.652Z,65.69
2023-03-10T01:02:35.341Z,65.70
2023-03-10T01:04:38.174Z,65.84
2023-03-10T01:06:42.341Z,65.55
2023-03-10T01:08:45.012Z,65.20
2023-03-10T01:10:48.482Z,64.89
2023-03-10T01:12:52.133Z,64.82
2023-03-10T01:14:55.571Z,64.77
2023-03-10T01:16:59.548Z,64.77
2023-03-10T01:19:02.551Z,64.77
2023-03-10T01:21:06.234Z,64.84
2023-03-10T01:23:17.900Z,64.85
2023-03-10T01:25:20.509Z,65.14
2023-03-10T01:27:23.226Z,64.98
2023-03-10T01:29:25.852Z,64.84
2023-03-10T01:31:28.780Z,64.91
2023-03-10T01:33:32.689Z,64.97
2023-03-10T01:35:35.997Z,65.19
2023-03-10T01:37:38.785Z,65.09
2023-03-10T01:39:41.399Z,65.12
2023-03-10T01:41:44.060Z,65.18
2023-03-10T01:43:52.560Z,65.13
2023-03-10T01:46:03.855Z,65.20
2023-03-10T01:48:07.742Z,65.14
2023-03-10T01:50:17.614Z,65.20
2023-03-10T01:52:25.633Z,65.23
2023-03-10T01:55:00.837Z,65.16
2023-03-10T01:57:07.069Z,64.98
2023-03-10T01:59:10.862Z,64.92
2023-03-10T02:01:16.182Z,65.00
2023-03-10T02:03:25.921Z,64.73
2023-03-10T02:05:31.826Z,64.74
2023-03-10T02:07:35.717Z,64.67
2023-03-10T02:09:42.930Z,64.45
2023-03-10T02:11:47.861Z,64.20
2023-03-10T02:13:50.717Z,64.23
2023-03-10T02:15:53.740Z,63.99
2023-03-10T02:17:56.719Z,63.99
2023-03-10T02:20:24.663Z,64.07
2023-03-10T02:22:27.727Z,64.08
2023-03-10T02:24:45.051Z,64.10
2023-03-10T02:27:07.211Z,64.00
2023-03-10T02:29:31.222Z,63.97
2023-03-10T02:31:34.866Z,63.98
2023-03-10T02:33:37.973Z,63.88
2023-03-10T02:35:40.746Z,63.91
2023-03-10T02:37:51.995Z,64.00
2023-03-10T02:39:55.432Z,64.20
2023-03-10T02:41:58.455Z,64.45
2023-03-10T02:44:04.860Z,64.50
2023-03-10T02:46:08.314Z,64.55
2023-03-10T02:48:20.233Z,64.54
2023-03-10T02:50:26.924Z,64.65
2023-03-10T02:52:53.312Z,64.73
2023-03-10T02:54:55.980Z,64.68
2023-03-10T02:56:59.199Z,64.84
2023-03-10T02:59:03.365Z,64.81
2023-03-10T03:01:07.579Z,64.93
2023-03-10T03:03:16.554Z,64.99
2023-03-10T03:05:20.413Z,64.93
2023-03-10T03:07:23.828Z,64.88
2023-03-10T03:09:26.807Z,64.85
2023-03-10T03:11:29.678Z,65.07
2023-03-10T03:13:32.310Z,65.08
2023-03-10T03:15:36.310Z,64.91
2023-03-10T03:17:39.262Z,65.12
2023-03-10T03:19:42.330Z,65.26
2023-03-10T03:21:49.846Z,65.30
2023-03-10T03:23:52.718Z,65.27
2023-03-10T03:25:55.543Z,65.51
2023-03-10T03:27:58.395Z,65.58
2023-03-10T03:30:01.030Z,65.84
2023-03-10T03:32:07.468Z,65.86
2023-03-10T03:34:11.218Z,66.01
2023-03-10T03:36:14.273Z,66.15
2023-03-10T03:38:17.167Z,65.99
2023-03-10T03:40:22.579Z,66.05
2023-03-10T03:42:26.421Z,66.19
2023-03-10T03:44:30.578Z,66.12
2023-03-10T03:46:33.781Z,66.22
2023-03-10T03:48:36.814Z,66.40
2023-03-10T03:50:40.501Z,66.36
2023-03-10T03:52:50.204Z,66.46
2023-03-10T03:54:53.213Z,66.68
2023-03-10T03:56:56.014Z,66.66
2023-03-10T03:58:58.749Z,66.90
2023-03-10T04:01:01.350Z,67.00
2023-03-10T04:03:07.577Z,67.16
2023-03-10T04:05:11.345Z,67.43
2023-03-10T04:07:14.553Z,67.51
2023-03-10T04:09:18.639Z,67.70
2023-03-10T04:11:21.828Z,67.64
2023-03-10T04:13:26.446Z,67.89
2023-03-10T04:15:30.836Z,67.93
2023-03-10T04:17:35.538Z,68.13
2023-03-10T04:19:38.468Z,68.18
2023-03-10T04:21:43.641Z,68.19
2023-03-10T04:23:46.978Z,68.38
2023-03-10T04:25:51.778Z,68.49
2023-03-10T04:27:54.575Z,68.67
2023-03-10T04:29:57.581Z,68.64
2023-03-10T04:32:05.489Z,68.66
2023-03-10T04:34:10.863Z,68.87
2023-03-10T04:36:14.036Z,68.80
2023-03-10T04:38:17.898Z,68.80
2023-03-10T04:40:21.600Z,68.78
2023-03-10T04:42:26.695Z,68.71
2023-03-10T04:44:31.228Z,68.79
2023-03-10T04:46:37.132Z,68.56
2023-03-10T04:48:40.356Z,68.64
2023-03-10T04:50:43.326Z,68.63
2023-03-10T04:52:46.616Z,68.75
2023-03-10T04:54:49.834Z,68.74
2023-03-10T04:56:53.145Z,68.87
2023-03-10T05:01:21.160Z,69.02
2023-03-10T05:03:27.035Z,69.18
2023-03-10T05:05:30.222Z,69.25
2023-03-10T05:07:33.217Z,69.25
2023-03-10T05:09:37.435Z,69.46
2023-03-10T05:11:41.032Z,69.51
2023-03-10T05:13:43.812Z,69.59
2023-03-10T05:15:49.015Z,69.47
2023-03-10T05:17:51.851Z,69.41
2023-03-10T05:19:55.100Z,69.37
2023-03-10T05:21:57.794Z,69.44
2023-03-10T05:24:01.150Z,69.34
2023-03-10T05:26:06.717Z,69.52
2023-03-10T05:28:11.522Z,69.32
2023-03-10T05:30:15.943Z,69.20
2023-03-10T05:32:20.125Z,69.24
2023-03-10T05:34:25.403Z,69.26
2023-03-10T05:36:28.286Z,69.26
2023-03-10T05:38:30.883Z,69.30
2023-03-10T05:40:33.737Z,69.38
2023-03-10T05:42:36.539Z,69.40
2023-03-10T05:44:40.419Z,69.29
2023-03-10T05:46:43.836Z,69.31
2023-03-10T05:48:47.838Z,69.24
2023-03-10T05:51:05.097Z,69.20
2023-03-10T05:53:08.748Z,69.05
2023-03-10T05:55:17.337Z,69.04
2023-03-10T05:57:25.997Z,68.88
2023-03-10T05:59:29.081Z,69.02
2023-03-10T06:01:33.584Z,68.83
2023-03-10T06:03:37.403Z,68.86
2023-03-10T06:05:40.190Z,69.03
2023-03-10T06:07:43.239Z,69.07
2023-03-10T06:09:46.225Z,69.03
2023-03-10T06:11:48.902Z,69.23
2023-03-10T06:13:51.570Z,69.25
2023-03-10T06:16:00.807Z,69.16
2023-03-10T06:18:04.529Z,69.22
2023-03-10T06:20:07.996Z,69.18
2023-03-10T06:22:10.981Z,69.17
2023-03-10T06:24:14.480Z,69.35
2023-03-10T06:26:17.780Z,69.31
2023-03-10T06:28:20.893Z,69.34
2023-03-10T06:30:23.706Z,69.32
2023-03-10T06:32:26.790Z,69.39
2023-03-10T06:34:30.188Z,69.21
2023-03-10T06:36:33.136Z,69.36
2023-03-10T06:38:35.755Z,69.66
2023-03-10T06:40:38.525Z,69.65
2023-03-10T06:42:42.663Z,69.78
2023-03-10T06:44:47.328Z,69.82
2023-03-10T06:46:51.499Z,69.84
2023-03-10T06:48:54.791Z,69.95
2023-03-10T06:50:57.855Z,69.97
2023-03-10T06:53:00.762Z,70.10
2023-03-10T06:55:05.116Z,70.11
2023-03-10T06:57:09.288Z,70.34
2023-03-10T06:59:12.041Z,70.59
2023-03-10T07:01:34.105Z,70.66
2023-03-10T07:03:36.836Z,70.73
2023-03-10T07:05:39.538Z,70.64
2023-03-10T07:07:42.801Z,70.66
2023-03-10T07:09:46.319Z,70.66
2023-03-10T07:11:49.025Z,70.42
2023-03-10T07:13:52.671Z,70.56
2023-03-10T07:15:57.047Z,70.47
2023-03-10T07:18:00.528Z,70.52
2023-03-10T07:20:04.828Z,70.42
2023-03-10T07:22:08.637Z,70.39
2023-03-10T07:24:13.537Z,70.24
2023-03-10T07:26:18.608Z,70.59
2023-03-10T07:28:21.293Z,70.58
2023-03-10T07:30:23.880Z,70.61
2023-03-10T07:32:26.601Z,70.36
2023-03-10T07:34:29.439Z,70.42
2023-03-10T07:36:32.046Z,70.64
2023-03-10T07:38:35.122Z,70.49
2023-03-10T07:40:40.048Z,70.59
2023-03-10T07:42:44.187Z,70.43
2023-03-10T07:44:47.253Z,70.44
2023-03-10T07:46:49.880Z,70.28
2023-03-10T07:48:53.749Z,70.25
2023-03-10T07:50:58.154Z,70.19
2023-03-10T07:53:01.425Z,70.32
2023-03-10T07:55:04.454Z,70.19
2023-03-10T07:57:08.077Z,70.03
2023-03-10T07:59:10.831Z,70.11
2023-03-10T08:01:20.321Z,70.05
2023-03-10T08:03:24.554Z,69.86
2023-03-10T08:05:27.952Z,69.83
2023-03-10T08:07:31.839Z,69.74
2023-03-10T08:09:34.796Z,69.68
2023-03-10T08:11:37.954Z,69.65
2023-03-10T08:13:41.781Z,69.38
2023-03-10T08:15:44.914Z,69.17
2023-03-10T08:17:48.352Z,69.07
2023-03-10T08:19:51.448Z,68.99
2023-03-10T08:21:57.321Z,68.94
2023-03-10T08:24:01.444Z,68.78
2023-03-10T08:26:07.357Z,68.87
2023-03-10T08:28:10.243Z,68.86
2023-03-10T08:30:13.434Z,69.06
2023-03-10T08:32:17.010Z,68.91
2023-03-10T08:34:20.349Z,68.67
2023-03-10T08:36:26.176Z,68.53
2023-03-10T08:38:29.375Z,68.66
2023-03-10T08:40:32.673Z,68.58
2023-03-10T08:42:38.424Z,68.56
2023-03-10T08:44:41.891Z,68.51
2023-03-10T08:46:47.212Z,68.35
2023-03-10T08:48:50.643Z,68.33
2023-03-10T08:50:53.635Z,68.36
2023-03-10T08:52:56.260Z,67.98
2023-03-10T08:54:59.976Z,67.82
2023-03-10T08:57:02.853Z,67.99
2023-03-10T08:59:05.921Z,67.98
2023-03-10T09:01:08.598Z,67.81
2023-03-10T09:03:12.405Z,67.63
2023-03-10T09:05:16.459Z,67.50
2023-03-10T09:07:19.514Z,67.19
2023-03-10T09:09:23.446Z,67.20
2023-03-10T09:11:31.675Z,67.14
2023-03-10T09:13:34.931Z,67.05
2023-03-10T09:15:41.153Z,67.07
2023-03-10T09:17:43.751Z,67.38
2023-03-10T09:19:46.318Z,67.12
2023-03-10T09:21:49.279Z,66.99
2023-03-10T09:23:53.131Z,66.99
2023-03-10T09:25:55.674Z,66.88
2023-03-10T09:27:58.477Z,66.65
2023-03-10T09:30:01.687Z,66.50
2023-03-10T09:32:06.075Z,66.43
2023-03-10T09:34:11.950Z,66.50
2023-03-10T09:36:15.139Z,66.20
2023-03-10T09:38:17.851Z,66.11
2023-03-10T09:40:21.708Z,66.13
2023-03-10T09:42:38.899Z,66.06
2023-03-10T09:44:50.406Z,65.87
2023-03-10T09:47:21.845Z,65.86
2023-03-10T09:49:32.583Z,65.78
2023-03-10T09:51:42.136Z,65.86
2023-03-10T09:54:12.915Z,65.79
2023-03-10T09:56:20.176Z,65.75
2023-03-10T09:58:31.650Z,65.60
2023-03-10T10:00:40.764Z,65.32
2023-03-10T10:02:47.465Z,65.22
2023-03-10T10:04:57.236Z,65.05
2023-03-10T10:07:01.440Z,64.83
2023-03-10T10:09:15.297Z,64.36
2023-03-10T10:11:19.743Z,64.28
2023-03-10T10:13:26.103Z,64.16
2023-03-10T10:15:34.230Z,64.01
2023-03-10T10:18:16.244Z,64.12
2023-03-10T10:20:27.488Z,64.23
2023-03-10T10:22:37.924Z,63.93
2023-03-10T10:24:41.636Z,64.12
2023-03-10T10:26:44.484Z,64.01
2023-03-10T10:28:54.236Z,64.10
2023-03-10T10:31:10.814Z,63.53
2023-03-10T10:33:18.150Z,63.57
2023-03-10T10:35:24.071Z,63.61
2023-03-10T10:37:31.550Z,63.34
2023-03-10T10:39:40.702Z,63.50
2023-03-10T10:41:43.461Z,63.56
2023-03-10T10:43:48.519Z,63.61
2023-03-10T10:46:04.520Z,63.56
2023-03-10T10:48:37.599Z,63.49
2023-03-10T10:50:41.385Z,63.58
2023-03-10T10:52:48.926Z,63.57
2023-03-10T10:54:57.003Z,63.28
2023-03-10T10:57:01.439Z,62.37
2023-03-10T10:59:04.370Z,62.89
2023-03-10T11:01:12.260Z,63.34
2023-03-10T11:03:24.261Z,63.74
2023-03-10T11:05:37.567Z,64.18
2023-03-10T11:07:40.471Z,64.35
2023-03-10T11:09:43.743Z,64.46
2023-03-10T11:11:52.370Z,64.85
2023-03-10T11:14:21.181Z,65.22
2023-03-10T11:16:42.600Z,65.64
2023-03-10T11:18:55.598Z,66.28
2023-03-10T11:21:01.391Z,66.09
2023-03-10T11:23:24.796Z,66.17
2023-03-10T11:25:47.143Z,65.93
2023-03-10T11:28:09.477Z,65.79
2023-03-10T11:30:31.756Z,65.89
2023-03-10T11:33:02.139Z,65.80
2023-03-10T11:35:21.785Z,65.73
2023-03-10T11:37:47.089Z,65.81
2023-03-10T11:40:19.641Z,65.96
2023-03-10T11:42:34.672Z,66.04
2023-03-10T11:44:42.981Z,66.07
2023-03-10T11:46:54.363Z,66.39
2023-03-10T11:49:10.945Z,66.32
2023-03-10T11:51:26.409Z,66.33
2023-03-10T11:53:45.638Z,66.34
2023-03-10T11:55:48.836Z,66.63
2023-03-10T11:57:58.298Z,66.38
2023-03-10T12:00:06.155Z,66.43
2023-03-10T12:02:17.165Z,66.47
2023-03-10T12:04:25.395Z,66.24
2023-03-10T12:06:38.734Z,65.97
2023-03-10T12:08:42.570Z,66.14
2023-03-10T12:10:45.914Z,66.12
2023-03-10T12:12:51.642Z,66.24
2023-03-10T12:14:56.922Z,66.38
2023-03-10T12:17:00.848Z,66.05
2023-03-10T12:19:06.747Z,66.05
2023-03-10T12:21:17.334Z,66.13
2023-03-10T12:23:26.739Z,66.02
2023-03-10T12:25:32.167Z,65.72
2023-03-10T12:28:13.465Z,65.60
2023-03-10T12:30:44.084Z,65.46
2023-03-10T12:32:47.939Z,65.46
2023-03-10T12:35:28.418Z,65.43
2023-03-10T12:37:31.088Z,65.32
2023-03-10T12:39:39.620Z,65.04
2023-03-10T12:42:01.133Z,65.12
2023-03-10T12:44:22.166Z,65.16
2023-03-10T12:46:43.816Z,65.07
2023-03-10T12:48:54.243Z,65.08
2023-03-10T12:51:05.009Z,64.85
2023-03-10T12:53:26.530Z,65.01
2023-03-10T12:55:30.687Z,66.72
2023-03-10T12:57:54.590Z,65.53
2023-03-10T13:00:00.535Z,64.79
2023-03-10T13:02:17.281Z,64.90
2023-03-10T13:04:24.813Z,64.30
2023-03-10T13:06:35.388Z,64.86
2023-03-10T13:08:44.364Z,65.61
2023-03-10T13:10:52.198Z,66.27
2023-03-10T13:13:03.014Z,66.75
2023-03-10T13:15:08.839Z,67.10
2023-03-10T13:17:34.396Z,67.04
2023-03-10T13:19:38.894Z,67.67
2023-03-10T13:21:42.250Z,67.76
2023-03-10T13:23:45.585Z,68.04
2023-03-10T13:25:53.777Z,68.21
2023-03-10T13:27:57.643Z,68.46
2023-03-10T13:30:14.077Z,68.65
2023-03-10T13:32:19.111Z,68.84
2023-03-10T13:34:23.873Z,69.30
2023-03-10T13:36:35.120Z,69.17
2023-03-10T13:38:42.553Z,69.32
2023-03-10T13:40:48.411Z,69.67
2023-03-10T13:42:51.214Z,69.70
2023-03-10T13:44:56.110Z,69.80
2023-03-10T13:47:01.657Z,70.01
2023-03-10T13:49:08.474Z,70.11
2023-03-10T13:51:14.501Z,70.11
2023-03-10T13:53:27.789Z,70.43
2023-03-10T13:55:39.608Z,70.28
2023-03-10T13:57:43.922Z,70.48
2023-03-10T13:59:48.334Z,70.61
2023-03-10T14:01:55.924Z,70.50
2023-03-10T14:04:08.566Z,70.46
2023-03-10T14:06:16.238Z,70.37
2023-03-10T14:08:28.332Z,70.32
2023-03-10T14:10:31.128Z,70.28
2023-03-10T14:12:37.097Z,70.34
2023-03-10T14:14:44.607Z,70.66
2023-03-10T14:16:51.015Z,70.27
2023-03-10T14:18:53.803Z,70.62
2023-03-10T14:20:58.205Z,70.76
2023-03-10T14:23:23.834Z,70.92
2023-03-10T14:25:27.711Z,70.89
2023-03-10T14:27:34.343Z,70.81
2023-03-10T14:29:37.001Z,70.97
2023-03-10T14:31:39.654Z,70.94
2023-03-10T14:33:42.343Z,70.87
2023-03-10T14:35:48.304Z,71.07
2023-03-10T14:37:52.884Z,71.21
2023-03-10T14:39:55.535Z,71.16
2023-03-10T14:41:58.503Z,71.06
2023-03-10T14:44:02.427Z,70.84
2023-03-10T14:46:05.966Z,70.89
2023-03-10T14:48:21.009Z,70.39
2023-03-10T14:50:24.956Z,70.14
2023-03-10T14:52:27.671Z,70.04
2023-03-10T14:54:30.418Z,70.01
2023-03-10T14:56:33.503Z,69.73
2023-03-10T14:58:48.546Z,69.62
2023-03-10T15:00:54.355Z,69.37
2023-03-10T15:02:57.919Z,69.27
2023-03-10T15:05:00.681Z,69.01
2023-03-10T15:07:03.372Z,68.79
2023-03-10T15:09:06.071Z,68.74
2023-03-10T15:11:09.723Z,68.78
2023-03-10T15:13:15.331Z,68.58
2023-03-10T15:15:24.156Z,68.64
2023-03-10T15:17:28.274Z,68.72
2023-03-10T15:19:31.467Z,68.49
2023-03-10T15:21:35.667Z,68.66
2023-03-10T15:23:38.425Z,68.84
2023-03-10T15:25:41.096Z,68.98
2023-03-10T15:27:45.685Z,69.03
2023-03-10T15:29:48.619Z,69.14
2023-03-10T15:31:52.773Z,69.33
2023-03-10T15:33:55.362Z,69.51
2023-03-10T15:35:58.899Z,69.67
2023-03-10T15:38:02.300Z,69.66
2023-03-10T15:40:08.050Z,69.93
2023-03-10T15:42:11.424Z,70.00
2023-03-10T15:44:14.513Z,69.85
2023-03-10T15:48:44.772Z,70.16
2023-03-10T15:50:47.406Z,70.44
2023-03-10T15:52:53.610Z,70.53
2023-03-10T15:54:57.185Z,70.47
2023-03-10T15:57:00.175Z,70.61
2023-03-10T15:59:02.815Z,70.47
2023-03-10T16:01:20.672Z,70.56
2023-03-10T16:03:24.769Z,70.54
2023-03-10T16:05:27.678Z,70.71
2023-03-10T16:07:33.206Z,70.51
2023-03-10T16:09:35.937Z,70.60
2023-03-10T16:11:42.846Z,70.63
2023-03-10T16:13:49.380Z,70.81
2023-03-10T16:15:52.704Z,70.97
2023-03-10T16:17:56.566Z,71.03
2023-03-10T16:20:02.340Z,71.17
2023-03-10T16:22:06.898Z,71.14
2023-03-10T16:24:09.958Z,71.36
2023-03-10T16:26:18.952Z,71.41
2023-03-10T16:28:22.058Z,71.21
2023-03-10T16:30:26.788Z,71.24
2023-03-10T16:32:31.090Z,71.26
2023-03-10T16:34:36.033Z,71.41
2023-03-10T16:36:38.811Z,71.49
2023-03-10T16:38:42.419Z,71.53
2023-03-10T16:40:50.597Z,71.42
2023-03-10T16:42:54.603Z,71.43
2023-03-10T16:44:57.849Z,71.47
2023-03-10T16:47:00.901Z,71.47
2023-03-10T16:49:04.484Z,71.34
2023-03-10T16:51:37.757Z,71.38
2023-03-10T16:53:41.489Z,71.26
2023-03-10T16:55:44.498Z,71.40
2023-03-10T16:57:47.410Z,71.63
2023-03-10T16:59:50.071Z,71.64
2023-03-10T17:01:53.872Z,71.60
2023-03-10T17:03:57.229Z,71.71
2023-03-10T17:05:59.844Z,71.75
2023-03-10T17:08:05.987Z,71.64
2023-03-10T17:10:11.974Z,71.83
2023-03-10T17:12:16.708Z,72.07
2023-03-10T17:14:20.867Z,72.24
2023-03-10T17:16:28.426Z,72.23
2023-03-10T17:18:32.877Z,72.18
2023-03-10T17:20:35.446Z,72.23
2023-03-10T17:22:39.115Z,72.28
2023-03-10T17:24:43.384Z,72.07
2023-03-10T17:26:46.888Z,71.89
2023-03-10T17:28:51.797Z,71.77
2023-03-10T17:30:55.581Z,71.76
2023-03-10T17:33:01.408Z,71.74
2023-03-10T17:35:09.768Z,71.46
2023-03-10T17:37:12.776Z,71.56
2023-03-10T17:39:22.454Z,71.78
2023-03-10T17:41:26.796Z,71.76
2023-03-10T17:43:34.906Z,71.92
2023-03-10T17:45:38.760Z,71.66
2023-03-10T17:47:42.233Z,71.75
2023-03-10T17:49:45.903Z,71.68
2023-03-10T17:51:48.607Z,71.44
2023-03-10T17:53:53.732Z,70.77
2023-03-10T17:55:57.406Z,70.61
2023-03-10T17:58:00.172Z,70.51
2023-03-10T18:00:03.979Z,70.05
2023-03-10T18:02:14.761Z,69.87
2023-03-10T18:04:17.765Z,69.76
2023-03-10T18:06:24.839Z,69.62
2023-03-10T18:08:27.896Z,69.55
2023-03-10T18:10:34.514Z,69.44
2023-03-10T18:12:37.498Z,69.45
2023-03-10T18:14:40.559Z,69.46
2023-03-10T18:16:43.359Z,69.36
2023-03-10T18:18:46.459Z,69.29
2023-03-10T18:20:49.799Z,69.05
2023-03-10T18:22:52.608Z,69.06
2023-03-10T18:24:57.947Z,68.92
2023-03-10T18:27:01.716Z,68.75
2023-03-10T18:29:04.680Z,68.38
2023-03-10T18:31:09.917Z,68.28
2023-03-10T18:33:14.544Z,68.38
2023-03-10T18:35:18.239Z,68.52
2023-03-10T18:37:21.723Z,68.58
2023-03-10T18:39:27.553Z,68.88
2023-03-10T18:41:32.879Z,68.71
2023-03-10T18:43:36.175Z,68.91
2023-03-10T18:45:44.061Z,69.13
2023-03-10T18:47:47.079Z,69.07
2023-03-10T18:49:50.408Z,68.86
2023-03-10T18:51:53.501Z,68.99
2023-03-10T18:53:57.092Z,69.24
2023-03-10T18:56:00.451Z,69.31
2023-03-10T18:58:07.170Z,69.26
2023-03-10T19:00:14.940Z,69.22
2023-03-10T19:02:17.626Z,69.34
2023-03-10T19:04:22.289Z,69.44
2023-03-10T19:06:31.691Z,69.51
2023-03-10T19:08:38.896Z,69.52
2023-03-10T19:10:45.303Z,69.74
2023-03-10T19:12:51.781Z,69.72
2023-03-10T19:14:57.128Z,69.46
2023-03-10T19:17:01.476Z,69.31
2023-03-10T19:19:05.049Z,69.34
2023-03-10T19:21:09.990Z,69.20
2023-03-10T19:23:14.985Z,69.24
2023-03-10T19:25:19.463Z,69.33
2023-03-10T19:27:23.259Z,68.93
2023-03-10T19:29:26.995Z,68.69
2023-03-10T19:31:31.098Z,68.74
2023-03-10T19:33:34.683Z,68.62
2023-03-10T19:35:39.472Z,68.40
2023-03-10T19:37:46.238Z,68.17
2023-03-10T19:39:50.432Z,68.43
2023-03-10T19:41:55.743Z,68.29
2023-03-10T19:44:00.311Z,68.26
2023-03-10T19:46:07.037Z,68.26
2023-03-10T19:48:10.659Z,68.04
2023-03-10T19:50:16.507Z,68.23
2023-03-10T19:52:20.046Z,68.20
2023-03-10T19:54:25.711Z,68.11
2023-03-10T19:56:30.646Z,67.91
2023-03-10T19:58:38.156Z,67.96
2023-03-10T20:00:42.238Z,67.71
2023-03-10T20:02:46.570Z,67.47
2023-03-10T20:04:52.025Z,67.33
2023-03-10T20:06:55.924Z,67.07
2023-03-10T20:08:58.811Z,66.96
2023-03-10T20:11:04.668Z,66.98
2023-03-10T20:13:08.806Z,66.80
2023-03-10T20:15:14.616Z,67.07
2023-03-10T20:17:19.382Z,66.80
2023-03-10T20:19:24.774Z,66.59
2023-03-10T20:21:30.649Z,66.73
2023-03-10T20:23:35.522Z,66.64
2023-03-10T20:25:38.868Z,66.63
2023-03-10T20:27:42.186Z,66.39
2023-03-10T20:29:45.682Z,66.60
2023-03-10T20:31:49.259Z,66.27
2023-03-10T20:33:53.765Z,65.96
2023-03-10T20:35:57.427Z,66.07
2023-03-10T20:38:02.123Z,66.37
2023-03-10T20:40:07.218Z,66.21
2023-03-10T20:42:10.788Z,66.11
2023-03-10T20:44:15.540Z,66.11
2023-03-10T20:46:25.790Z,66.44
2023-03-10T20:48:29.291Z,66.16
2023-03-10T20:50:34.137Z,65.79
2023-03-10T20:52:42.068Z,65.60
2023-03-10T20:54:44.936Z,65.23
2023-03-10T20:56:50.668Z,65.67
2023-03-10T20:58:59.233Z,66.02
2023-03-10T21:01:02.806Z,66.39
2023-03-10T21:03:05.801Z,66.71
2023-03-10T21:05:11.114Z,66.63
2023-03-10T21:07:18.025Z,65.70
2023-03-10T21:09:22.484Z,66.26
2023-03-10T21:11:25.872Z,65.30
2023-03-10T21:13:28.797Z,64.99
2023-03-10T21:15:31.919Z,63.67
2023-03-10T21:17:35.099Z,63.64
2023-03-10T21:19:38.962Z,62.82
2023-03-10T21:21:44.016Z,61.68
2023-03-10T21:23:47.280Z,61.01
2023-03-10T21:25:50.175Z,61.29
2023-03-10T21:27:58.628Z,61.69
2023-03-10T21:30:03.765Z,62.37
2023-03-10T21:32:06.550Z,62.55
2023-03-10T21:34:09.516Z,62.61
2023-03-10T21:36:15.848Z,62.84
2023-03-10T21:38:18.526Z,63.00
2023-03-10T21:40:24.295Z,62.56
2023-03-10T21:42:28.903Z,62.73
2023-03-10T21:44:31.785Z,62.75
2023-03-10T21:46:34.544Z,62.98
2023-03-10T21:48:37.175Z,63.17
2023-03-10T21:50:39.776Z,64.04
2023-03-10T21:52:45.590Z,64.70
2023-03-10T21:54:48.392Z,64.79
2023-03-10T21:56:51.896Z,64.64
2023-03-10T21:58:56.905Z,64.82
2023-03-10T22:00:59.546Z,65.11
2023-03-10T22:03:04.995Z,65.03
2023-03-10T22:05:09.327Z,64.94
2023-03-10T22:07:13.070Z,65.10
2023-03-10T22:09:15.674Z,65.02
2023-03-10T22:11:19.593Z,64.84
2023-03-10T22:13:22.620Z,64.73
2023-03-10T22:15:26.969Z,64.99
2023-03-10T22:17:29.614Z,65.01
2023-03-10T22:19:33.188Z,64.39
2023-03-10T22:21:35.978Z,64.11
2023-03-10T22:23:38.696Z,64.60
2023-03-10T22:25:41.990Z,65.12
2023-03-10T22:27:48.908Z,65.30
2023-03-10T22:29:51.848Z,65.17
2023-03-10T22:31:56.274Z,65.00
2023-03-10T22:33:59.444Z,64.85
2023-03-10T22:36:07.255Z,64.57
2023-03-10T22:38:10.023Z,65.05
2023-03-10T22:40:16.431Z,64.84
2023-03-10T22:42:19.010Z,64.40
2023-03-10T22:44:23.148Z,64.29
2023-03-10T22:46:26.087Z,64.35
2023-03-10T22:48:29.068Z,64.39
2023-03-10T22:50:40.701Z,64.48
2023-03-10T22:52:43.487Z,64.17
2023-03-10T22:54:46.274Z,64.52
2023-03-10T22:56:50.822Z,64.20
2023-03-10T22:58:54.005Z,63.89
2023-03-10T23:00:57.177Z,63.53
2023-03-10T23:02:59.968Z,63.48
2023-03-10T23:05:03.538Z,63.72
2023-03-10T23:07:07.029Z,63.78
2023-03-10T23:09:10.876Z,63.95
2023-03-10T23:11:17.574Z,63.40
2023-03-10T23:13:20.761Z,63.15
2023-03-10T23:15:30.157Z,63.37
2023-03-10T23:17:33.169Z,63.63
2023-03-10T23:19:35.978Z,63.53
2023-03-10T23:21:39.026Z,63.62
2023-03-10T23:23:43.860Z,63.62
2023-03-10T23:25:48.197Z,63.61
2023-03-10T23:27:50.786Z,63.46
2023-03-10T23:29:54.781Z,62.61
2023-03-10T23:31:57.417Z,62.85
2023-03-10T23:34:00.201Z,63.36
2023-03-10T23:36:03.064Z,63.40
2023-03-10T23:38:07.005Z,63.79
2023-03-10T23:40:13.525Z,64.05
2023-03-10T23:42:16.238Z,63.97
2023-03-10T23:44:22.604Z,63.66
2023-03-10T23:46:25.463Z,63.40
2023-03-10T23:48:28.266Z,62.33
2023-03-10T23:50:38.669Z,62.50
2023-03-10T23:52:41.313Z,62.53
2023-03-10T23:54:43.957Z,62.81
2023-03-10T23:56:47.117Z,63.54
2023-03-10T23:58:49.780Z,63.23
